Flight Track Log - Related Links

Times and Time Zones

All times are in EDT time to prevent confusion due to time zone crossing. See the RPA3496 flight status page for this flight to view local times or setup timezone preferences in your user account.

Time Position Orientation Groundspeed Altitude Reporting Facility
EDT Latitude Longitude Course Direction KTS MPH feet Rate Location/Type
Fri 07:19:38 PM 40.7833 -73.7667 57° Northeast 286 329 4,100  Level New York TRACON
Fri 07:20:44 PM 40.8667 -73.8500 323° Northwest 297 342 6,800 2,381 Climbing New York TRACON
Fri 07:21:00 PM 40.7689 -74.3056 269° West  Level Estimated
Fri 07:21:44 PM 40.8833 -73.9333 285° West 279 321 9,100  Level New York TRACON
Fri 07:22:00 PM 40.7666 -74.4138 268° West  Level Estimated
Fri 07:22:44 PM 40.8833 -74.0333 270° West 280 322 11,600  Level New York TRACON
Fri 07:23:00 PM 40.7749 -74.5216 276° West  Level FlightAware Approximate
Fri 07:23:44 PM 40.8833 -74.1333 270° West 282 325 14,200  Level New York TRACON
Fri 07:24:44 PM 40.8667 -74.2333 258° West 287 330 15,100 600 Climbing New York TRACON
Fri 07:26:14 PM 40.8603 -74.3928 267° West 290 334 15,700 765 Climbing New York Center
Fri 07:27:13 PM 40.8531 -74.4856 264° West 290 334 17,000 655 Climbing New York Center
Fri 07:28:13 PM 40.8431 -74.6058 264° West 295 339 17,000  Level New York Center
Fri 07:29:12 PM 40.8375 -74.7097 266° West 317 365 17,000 350 Level New York Center
Fri 07:30:13 PM 40.8064 -74.8339 252° West 322 371 17,700 793 Climbing New York Center
Fri 07:31:13 PM 40.7753 -74.9444 250° West 322 371 18,600 793 Climbing New York Center
Fri 07:32:14 PM 40.7464 -75.0522 251° West 322 371 19,300 908 Climbing New York Center
Fri 07:33:12 PM 40.7153 -75.1625 250° West 322 371 20,400 1,300 Climbing New York Center
Fri 07:34:14 PM 40.6861 -75.2756 251° West 328 377 21,900 1,377 Climbing New York Center
Fri 07:35:14 PM 40.6544 -75.3939 251° West 333 383 23,200 1,322 Climbing New York Center
Fri 07:36:12 PM 40.6228 -75.5094 250° West 338 389 24,500 1,210 Climbing New York Center
Fri 07:37:13 PM 40.5886 -75.6328 250° West 350 403 25,600 1,100 Climbing New York Center
Fri 07:38:12 PM 40.5519 -75.7614 249° West 361 415 26,700 1,150 Climbing New York Center
Fri 07:39:13 PM 40.5150 -75.8925 250° West 371 427 27,900 650 Climbing New York Center
Fri 07:40:12 PM 40.4786 -76.0125 248° West 390 449 28,000 50 Climbing New York Center
Fri 07:41:13 PM 40.4389 -76.1539 250° West 400 460 28,000  Level New York Center
Fri 07:42:12 PM 40.4014 -76.2900 250° West 400 460 28,000  Level New York Center
Fri 07:43:13 PM 40.3589 -76.4367 249° West 400 460 28,000  Level New York Center
Fri 07:44:13 PM 40.3175 -76.5611 246° West 394 453 28,000  Level New York Center
Fri 07:45:15 PM 40.2717 -76.6881 245° Southwest 388 447 28,000  Level New York Center
Fri 07:46:12 PM 40.2397 -76.8239 253° West 388 447 28,000  Level New York Center
Fri 07:47:12 PM 40.2097 -76.9572 254° West 388 447 28,000  Level New York Center
Fri 07:48:12 PM 40.1797 -77.0906 254° West 388 447 28,000  Level New York Center
Fri 07:49:13 PM 40.1475 -77.2233 252° West 393 452 28,000  Level New York Center
Fri 07:50:40 PM 40.1050 -77.4069 253° West 385 443 28,000 -564 Level Cleveland Center
Fri 07:51:42 PM 40.0725 -77.5394 252° West 384 442 26,600 -1,645 Descending Cleveland Center
Fri 07:52:44 PM 40.0417 -77.6678 253° West 375 432 24,600 -2,129 Descending Cleveland Center
Fri 07:53:46 PM 40.0044 -77.8222 253° West 375 432 22,200 -1,268 Descending Cleveland Center
Fri 07:54:47 PM 39.9783 -77.9544 256° West 375 432 22,000 -98 Descending Cleveland Center
Fri 07:55:49 PM 39.9964 -78.1011 279° West 402 463 22,000  Level Cleveland Center
Fri 07:56:51 PM 40.0136 -78.2431 279° West 401 461 22,000  Level Cleveland Center
Fri 07:57:53 PM 40.0344 -78.3889 281° West 399 459 22,000 -774 Level Cleveland Center
Fri 07:58:55 PM 40.0514 -78.5281 279° West 393 452 20,400 -1,742 Descending Cleveland Center
Fri 07:59:57 PM 40.0672 -78.6633 279° West 382 440 18,400 -1,171 Descending Cleveland Center
Fri 08:00:58 PM 40.0878 -78.8197 280° West 368 423 18,000 -195 Descending Cleveland Center
Fri 08:02:00 PM 40.1042 -78.9506 279° West 368 423 18,000  Level Cleveland Center
Fri 08:03:02 PM 40.1206 -79.0847 279° West 370 426 18,000 -290 Level Cleveland Center
Fri 08:04:04 PM 40.1369 -79.2175 279° West 371 427 17,400 -1,306 Descending Cleveland Center
Fri 08:05:06 PM 40.1536 -79.3575 279° West 364 419 15,300 -1,935 Descending Cleveland Center
Fri 08:06:08 PM 40.1678 -79.4803 279° West 345 397 13,400 -1,742 Descending Cleveland Center
Fri 08:07:10 PM 40.1817 -79.5989 279° West 334 384 11,700 -1,403 Descending Cleveland Center
Fri 08:08:12 PM 40.2144 -79.7094 291° West 336 387 10,500 -829 Descending Cleveland Center
Fri 08:09:13 PM 40.2781 -79.7822 319° Northwest 308 354 10,000 -1,171 Descending Cleveland Center
Fri 08:10:15 PM 40.3486 -79.8653 318° Northwest 292 336 8,100 -2,081 Descending Cleveland Center
Fri 08:11:17 PM 40.4022 -79.9272 319° Northwest 266 306 5,700 -1,984 Descending Cleveland Center
Fri 08:12:19 PM 40.4542 -79.9892 318° Northwest 261 300 4,000 -1,113 Descending Cleveland Center
Fri 08:13:21 PM 40.4789 -80.0519 297° West 224 258 3,400 -726 Descending Cleveland Center
Fri 08:14:23 PM 40.4828 -80.1156 275° West 182 209 2,500 -871 Descending Cleveland Center
Fri 08:15:25 PM 40.4850 -80.1792 273° West 159 183 1,600 -871 Descending Cleveland Center

Login

Don't have an account? Register now (free) for customized features, flight alerts, and more!